Time;durP1;ratioP1;P1;durP2;ratioP2;P2;SDS_P1;SDS_P2;PMS_P1;PMS_P2;Temp;Humidity;BMP_temperature;BMP_pressure;BME280_temperature;BME280_humidity;BME280_pressure;Samples;Min_cycle;Max_cycle;Signal;HPM_P1;HPM_P2
2023/03/31 00:01:40;;;;;;;0.52;0.38;;;10.80;71.70;;;;;;5052737;28;20139;-84
2023/03/31 00:04:07;;;;;;;0.32;0.13;;;10.80;71.60;;;;;;5054442;28;20175;-84
2023/03/31 00:06:37;;;;;;;0.52;0.20;;;10.80;69.80;;;;;;5052439;28;20049;-84
2023/03/31 00:09:17;;;;;;;0.60;0.60;;;10.80;71.00;;;;;;5052692;28;20084;-83
2023/03/31 00:11:44;;;;;;;0.10;0.10;;;10.80;69.60;;;;;;5054018;28;20350;-84
2023/03/31 00:14:10;;;;;;;0.05;0.05;;;10.70;70.00;;;;;;5052356;28;20056;-84
2023/03/31 00:16:37;;;;;;;0.00;0.00;;;10.80;70.10;;;;;;5052658;28;20048;-83
2023/03/31 00:19:03;;;;;;;0.10;0.10;;;10.70;70.30;;;;;;5056496;28;20053;-83
2023/03/31 00:21:32;;;;;;;0.00;0.00;;;10.70;71.30;;;;;;5057054;28;20488;-84
2023/03/31 00:24:03;;;;;;;0.00;0.00;;;10.60;72.30;;;;;;5056424;28;20405;-84
2023/03/31 00:26:29;;;;;;;0.00;0.00;;;10.70;71.90;;;;;;5057488;28;20048;-84
2023/03/31 00:28:56;;;;;;;0.00;0.00;;;10.60;72.40;;;;;;5057332;28;20145;-84
2023/03/31 00:31:22;;;;;;;1.23;0.40;;;10.60;72.30;;;;;;5057216;28;20132;-84
2023/03/31 00:33:49;;;;;;;0.10;0.10;;;10.60;72.30;;;;;;5039850;28;20068;-84
2023/03/31 00:36:26;;;;;;;0.52;0.52;;;10.60;72.40;;;;;;5023253;28;20122;-84
2023/03/31 00:38:58;;;;;;;0.00;0.00;;;10.50;73.80;;;;;;5040936;28;20041;-84
2023/03/31 00:41:25;;;;;;;0.00;0.00;;;10.50;74.10;;;;;;5039498;28;20049;-84
2023/03/31 00:44:08;;;;;;;0.10;0.10;;;10.40;75.90;;;;;;5056054;28;20091;-84
2023/03/31 00:46:48;;;;;;;0.03;0.00;;;10.40;76.60;;;;;;5056077;28;20130;-85
2023/03/31 00:49:20;;;;;;;0.00;0.00;;;10.40;80.50;;;;;;5057756;28;20041;-84
2023/03/31 00:51:48;;;;;;;0.00;0.00;;;10.40;81.80;;;;;;5056768;28;20037;-84
2023/03/31 00:54:14;;;;;;;1.33;0.05;;;10.30;86.90;;;;;;5055770;28;20131;-84
2023/03/31 00:56:43;;;;;;;0.00;0.00;;;10.30;92.20;;;;;;5055291;28;20055;-84
2023/03/31 00:59:11;;;;;;;0.00;0.00;;;10.30;91.20;;;;;;5055429;28;20063;-84
2023/03/31 01:01:41;;;;;;;0.22;0.22;;;10.30;91.60;;;;;;5055590;28;20133;-85
2023/03/31 01:04:08;;;;;;;0.00;0.00;;;10.30;93.20;;;;;;5055688;28;20040;-84
2023/03/31 01:06:41;;;;;;;1.20;0.47;;;10.30;92.90;;;;;;5055875;28;20496;-84
2023/03/31 01:09:07;;;;;;;0.00;0.00;;;10.30;95.00;;;;;;5055738;28;20393;-84
2023/03/31 01:11:33;;;;;;;0.32;0.00;;;10.30;95.80;;;;;;5038781;28;20041;-84
2023/03/31 01:14:00;;;;;;;0.00;0.00;;;10.30;95.30;;;;;;5056660;28;20052;-84
2023/03/31 01:16:26;;;;;;;2.35;0.20;;;10.30;95.90;;;;;;5055332;28;20412;-84
2023/03/31 01:18:52;;;;;;;0.57;0.57;;;10.30;96.90;;;;;;5055258;28;20052;-84
2023/03/31 01:21:32;;;;;;;0.15;0.15;;;10.20;97.40;;;;;;5055115;28;20061;-84
2023/03/31 01:24:24;;;;;;;1.27;0.10;;;10.20;96.50;;;;;;5055223;28;20052;-85
2023/03/31 01:27:10;;;;;;;0.13;0.13;;;10.20;96.20;;;;;;5056132;28;20045;-85
2023/03/31 01:29:57;;;;;;;0.00;0.00;;;10.20;96.00;;;;;;5056553;28;20381;-84
2023/03/31 01:32:46;;;;;;;0.00;0.00;;;10.20;97.60;;;;;;5055201;28;20044;-85
2023/03/31 01:35:24;;;;;;;0.43;0.10;;;10.20;97.60;;;;;;5055616;28;20381;-83
2023/03/31 01:38:08;;;;;;;0.00;0.00;;;10.20;96.40;;;;;;5055133;28;20049;-84
2023/03/31 01:41:07;;;;;;;2.65;1.02;;;10.10;96.60;;;;;;5038817;28;20063;-83
2023/03/31 01:44:02;;;;;;;0.00;0.00;;;10.10;96.90;;;;;;5038865;28;20057;-83
2023/03/31 01:46:33;;;;;;;0.00;0.00;;;10.20;97.50;;;;;;5054853;28;20588;-84
2023/03/31 01:49:23;;;;;;;1.17;0.00;;;10.10;97.90;;;;;;5054753;28;20167;-84
2023/03/31 01:51:59;;;;;;;0.00;0.00;;;10.10;98.00;;;;;;5054718;28;20041;-84
2023/03/31 01:54:27;;;;;;;0.00;0.00;;;10.10;97.30;;;;;;5054991;28;20056;-84
2023/03/31 01:57:18;;;;;;;0.00;0.00;;;10.00;97.80;;;;;;5055548;28;20045;-84
2023/03/31 02:00:10;;;;;;;0.00;0.00;;;10.10;97.50;;;;;;5056185;28;20045;-84
2023/03/31 02:02:48;;;;;;;1.02;0.43;;;10.10;97.40;;;;;;5056225;28;20052;-83
2023/03/31 02:05:27;;;;;;;0.10;0.10;;;10.10;97.60;;;;;;5054295;28;20049;-83
2023/03/31 02:07:54;;;;;;;1.17;0.85;;;10.10;98.40;;;;;;5055528;28;20041;-83
2023/03/31 02:10:21;;;;;;;0.00;0.00;;;10.10;98.20;;;;;;5054536;28;20051;-84
2023/03/31 02:12:49;;;;;;;0.10;0.00;;;10.10;98.10;;;;;;5054045;28;20044;-83
2023/03/31 02:15:21;;;;;;;0.00;0.00;;;10.10;98.40;;;;;;5037946;28;20136;-84
2023/03/31 02:17:50;;;;;;;0.00;0.00;;;10.10;98.90;;;;;;5055131;28;20389;-84
2023/03/31 02:20:19;;;;;;;0.00;0.00;;;10.10;98.40;;;;;;5037653;28;20064;-84
2023/03/31 02:22:54;;;;;;;0.73;0.25;;;10.10;98.40;;;;;;5054961;28;20064;-85
2023/03/31 02:25:28;;;;;;;0.10;0.10;;;10.10;98.40;;;;;;5054666;28;20452;-84
2023/03/31 02:28:07;;;;;;;0.00;0.00;;;10.10;98.30;;;;;;5038073;28;20072;-84
2023/03/31 02:31:02;;;;;;;2.38;0.80;;;10.20;97.80;;;;;;5055144;28;20044;-84
2023/03/31 02:33:27;;;;;;;0.10;0.10;;;10.20;98.20;;;;;;5038998;28;20106;-84
2023/03/31 02:35:53;;;;;;;0.38;0.38;;;10.20;99.20;;;;;;5056206;28;20049;-84
2023/03/31 02:38:19;;;;;;;0.15;0.15;;;10.20;98.40;;;;;;5057817;28;20194;-84
2023/03/31 02:40:45;;;;;;;0.10;0.10;;;10.20;97.90;;;;;;5058906;28;20156;-83
2023/03/31 02:43:11;;;;;;;0.00;0.00;;;10.20;98.70;;;;;;5038584;28;20135;-83
2023/03/31 02:45:42;;;;;;;0.25;0.25;;;10.30;98.70;;;;;;5054118;28;20045;-84
2023/03/31 02:48:17;;;;;;;2.35;0.60;;;10.30;98.50;;;;;;5053718;28;20045;-83
2023/03/31 02:51:01;;;;;;;0.17;0.17;;;10.30;98.20;;;;;;5054361;28;20049;-83
2023/03/31 02:53:45;;;;;;;9.05;0.77;;;10.30;98.30;;;;;;5053558;28;20045;-84
2023/03/31 02:56:32;;;;;;;0.00;0.00;;;10.30;98.30;;;;;;5037495;28;20131;-84
2023/03/31 02:59:18;;;;;;;0.00;0.00;;;10.30;98.60;;;;;;5053487;28;20088;-84
2023/03/31 03:01:56;;;;;;;0.10;0.10;;;10.30;98.50;;;;;;5054534;28;20389;-84
2023/03/31 03:04:34;;;;;;;0.43;0.10;;;10.30;98.30;;;;;;5037186;28;20055;-84
2023/03/31 03:07:38;;;;;;;0.20;0.20;;;10.30;98.50;;;;;;5053275;28;20090;-84
2023/03/31 03:10:11;;;;;;;0.00;0.00;;;10.40;98.40;;;;;;5037980;28;20053;-84
2023/03/31 03:12:55;;;;;;;0.00;0.00;;;10.40;97.70;;;;;;5054642;28;20053;-84
2023/03/31 03:15:31;;;;;;;0.40;0.10;;;10.40;98.90;;;;;;5054124;28;20048;-84
2023/03/31 03:17:57;;;;;;;0.47;0.47;;;10.40;99.20;;;;;;5054929;28;20049;-84
2023/03/31 03:20:24;;;;;;;0.32;0.00;;;10.30;99.90;;;;;;5036282;28;20068;-84
2023/03/31 03:22:49;;;;;;;0.00;0.00;;;10.30;99.90;;;;;;5052954;28;20060;-84
2023/03/31 03:25:16;;;;;;;0.00;0.00;;;10.30;99.80;;;;;;5052848;28;20053;-83
2023/03/31 03:27:43;;;;;;;0.00;0.00;;;10.30;99.90;;;;;;5053276;28;20041;-84
2023/03/31 03:30:10;;;;;;;0.80;0.10;;;10.30;99.90;;;;;;5053113;28;20355;-84
2023/03/31 03:32:36;;;;;;;0.00;0.00;;;10.30;99.90;;;;;;5052900;28;20048;-84
2023/03/31 03:35:03;;;;;;;0.00;0.00;;;10.30;99.90;;;;;;5052857;28;20051;-83
2023/03/31 03:37:30;;;;;;;0.28;0.28;;;10.30;99.90;;;;;;5036867;28;20396;-83
2023/03/31 03:39:56;;;;;;;0.00;0.00;;;10.30;99.90;;;;;;5052862;28;20377;-83
2023/03/31 03:42:21;;;;;;;1.45;0.22;;;10.30;99.90;;;;;;5052995;28;20469;-83
2023/03/31 03:44:47;;;;;;;0.00;0.00;;;10.30;99.90;;;;;;5053886;28;20063;-83
2023/03/31 03:47:13;;;;;;;8.88;1.00;;;10.20;99.90;;;;;;5036126;28;20388;-83
2023/03/31 03:49:39;;;;;;;0.00;0.00;;;10.20;99.90;;;;;;5052697;28;20045;-83
2023/03/31 03:52:05;;;;;;;0.00;0.00;;;10.20;99.90;;;;;;5052664;28;20048;-83
2023/03/31 03:54:30;;;;;;;0.08;0.00;;;10.20;99.90;;;;;;5053689;28;20045;-83
2023/03/31 03:56:56;;;;;;;0.00;0.00;;;10.20;99.90;;;;;;5054200;28;20552;-83
2023/03/31 03:59:22;;;;;;;0.00;0.00;;;10.20;99.90;;;;;;5054019;28;20048;-84
2023/03/31 04:01:49;;;;;;;0.00;0.00;;;10.20;99.90;;;;;;5035532;28;20076;-84
2023/03/31 04:04:15;;;;;;;0.00;0.00;;;10.10;99.90;;;;;;5053284;28;20443;-84
2023/03/31 04:06:41;;;;;;;0.00;0.00;;;10.10;99.90;;;;;;5052419;28;20093;-84
2023/03/31 04:09:07;;;;;;;0.43;0.00;;;10.10;99.90;;;;;;5052650;28;20138;-84
2023/03/31 04:11:33;;;;;;;0.00;0.00;;;10.10;99.90;;;;;;5052397;28;20098;-84
2023/03/31 04:13:58;;;;;;;0.00;0.00;;;10.00;99.90;;;;;;5052518;28;20049;-84
2023/03/31 04:16:24;;;;;;;0.05;0.05;;;10.10;99.90;;;;;;5052458;28;20132;-84
2023/03/31 04:18:51;;;;;;;0.00;0.00;;;10.10;99.90;;;;;;5053560;28;20041;-84
2023/03/31 04:21:23;;;;;;;0.10;0.08;;;10.00;99.90;;;;;;5035789;28;20053;-84
2023/03/31 04:23:57;;;;;;;0.00;0.00;;;10.00;99.90;;;;;;5037296;28;20135;-84
2023/03/31 04:26:29;;;;;;;0.00;0.00;;;10.10;99.90;;;;;;5052834;28;20053;-84
2023/03/31 04:29:01;;;;;;;0.00;0.00;;;10.10;99.90;;;;;;5054362;28;20048;-84
2023/03/31 04:31:29;;;;;;;0.00;0.00;;;10.10;99.90;;;;;;5053488;28;20562;-84
2023/03/31 04:33:59;;;;;;;0.00;0.00;;;10.10;99.90;;;;;;5019743;28;20497;-85
2023/03/31 04:36:25;;;;;;;0.00;0.00;;;10.20;99.90;;;;;;5053310;28;20053;-84
2023/03/31 04:38:53;;;;;;;0.00;0.00;;;10.10;99.90;;;;;;5052247;28;20041;-83
2023/03/31 04:41:19;;;;;;;0.00;0.00;;;10.20;99.90;;;;;;5053296;28;20063;-84
2023/03/31 04:43:45;;;;;;;0.10;0.10;;;10.10;99.90;;;;;;5035973;28;20068;-84
2023/03/31 04:46:11;;;;;;;0.00;0.00;;;10.10;99.90;;;;;;5036502;28;20408;-83
2023/03/31 04:48:38;;;;;;;0.00;0.00;;;10.20;99.90;;;;;;5035571;28;20049;-84
2023/03/31 04:51:04;;;;;;;0.00;0.00;;;10.20;99.90;;;;;;5051934;28;20037;-83
2023/03/31 04:53:30;;;;;;;0.00;0.00;;;10.20;99.90;;;;;;5053046;28;20045;-83
2023/03/31 04:55:56;;;;;;;0.00;0.00;;;10.10;99.90;;;;;;5052898;28;20068;-84
2023/03/31 04:58:22;;;;;;;0.10;0.00;;;10.10;99.90;;;;;;5053981;28;20084;-84
2023/03/31 05:00:47;;;;;;;0.00;0.00;;;10.10;99.90;;;;;;5019216;28;20492;-84
2023/03/31 05:03:13;;;;;;;0.00;0.00;;;10.10;99.90;;;;;;5052703;28;20423;-84
2023/03/31 05:05:39;;;;;;;0.22;0.20;;;10.20;99.90;;;;;;5057398;28;20060;-84
2023/03/31 05:08:05;;;;;;;0.00;0.00;;;10.20;99.90;;;;;;5055385;28;20059;-84
2023/03/31 05:10:31;;;;;;;0.00;0.00;;;10.20;99.90;;;;;;5056515;28;20041;-84
2023/03/31 05:12:57;;;;;;;0.00;0.00;;;10.20;99.90;;;;;;5057087;28;20048;-84
2023/03/31 05:15:23;;;;;;;0.52;0.52;;;10.10;99.90;;;;;;5055317;28;20064;-84
2023/03/31 05:17:51;;;;;;;0.00;0.00;;;10.20;99.90;;;;;;5055163;28;20040;-84
2023/03/31 05:20:18;;;;;;;1.95;0.20;;;10.20;99.90;;;;;;5055962;28;20048;-82
2023/03/31 05:22:45;;;;;;;0.00;0.00;;;10.20;99.90;;;;;;5056271;28;20056;-83
2023/03/31 05:25:17;;;;;;;0.00;0.00;;;10.20;99.90;;;;;;5055303;28;20045;-82
2023/03/31 05:27:45;;;;;;;0.25;0.05;;;10.10;99.90;;;;;;5055566;28;20040;-81
2023/03/31 05:30:12;;;;;;;0.08;0.05;;;10.10;99.90;;;;;;5038650;28;20048;-81
2023/03/31 05:32:37;;;;;;;0.25;0.25;;;10.10;99.90;;;;;;5054905;28;20503;-81
2023/03/31 05:35:04;;;;;;;0.00;0.00;;;10.10;99.90;;;;;;5038488;28;20053;-81
2023/03/31 05:37:30;;;;;;;0.00;0.00;;;10.10;99.90;;;;;;5056543;28;20045;-81
2023/03/31 05:39:56;;;;;;;0.00;0.00;;;10.10;99.90;;;;;;5055995;28;20082;-82
2023/03/31 05:42:22;;;;;;;0.00;0.00;;;10.10;99.90;;;;;;5037795;28;20128;-81
2023/03/31 05:44:48;;;;;;;0.22;0.22;;;10.10;99.90;;;;;;5055722;28;20099;-80
2023/03/31 05:47:14;;;;;;;0.00;0.00;;;10.10;99.90;;;;;;5054895;28;20052;-80
2023/03/31 05:49:40;;;;;;;0.00;0.00;;;10.10;99.90;;;;;;5056453;28;20513;-79
2023/03/31 05:52:07;;;;;;;0.00;0.00;;;10.10;99.90;;;;;;5054172;28;20041;-79
2023/03/31 05:54:32;;;;;;;0.00;0.00;;;10.10;99.90;;;;;;5054824;28;20049;-80
2023/03/31 05:56:58;;;;;;;1.60;0.20;;;10.10;99.90;;;;;;5054731;28;20393;-82
2023/03/31 05:59:24;;;;;;;0.00;0.00;;;10.10;99.90;;;;;;5038962;28;20055;-82
2023/03/31 06:01:50;;;;;;;0.00;0.00;;;10.00;99.90;;;;;;5054399;28;20044;-82
2023/03/31 06:04:15;;;;;;;0.00;0.00;;;10.00;99.90;;;;;;5054389;28;20045;-82
2023/03/31 06:06:41;;;;;;;0.00;0.00;;;10.00;99.90;;;;;;5037721;28;20053;-84
2023/03/31 06:09:07;;;;;;;0.00;0.00;;;10.00;99.90;;;;;;5055463;28;20049;-82
2023/03/31 06:11:33;;;;;;;0.00;0.00;;;10.00;99.90;;;;;;5037715;28;20044;-84
2023/03/31 06:13:59;;;;;;;4.72;0.68;;;10.00;99.90;;;;;;5054039;28;20049;-81
2023/03/31 06:16:25;;;;;;;0.00;0.00;;;10.00;99.90;;;;;;5037400;28;20084;-81
2023/03/31 06:18:52;;;;;;;0.22;0.22;;;10.00;99.90;;;;;;5054875;28;20084;-81
2023/03/31 06:21:19;;;;;;;0.00;0.00;;;10.00;99.90;;;;;;5055150;28;20520;-80
2023/03/31 06:23:45;;;;;;;0.00;0.00;;;10.00;99.90;;;;;;5055115;28;20049;-80
2023/03/31 06:26:13;;;;;;;0.00;0.00;;;10.00;99.90;;;;;;5055050;28;20051;-81
2023/03/31 06:28:39;;;;;;;0.00;0.00;;;10.00;99.90;;;;;;5053911;28;20037;-81
2023/03/31 06:31:08;;;;;;;0.00;0.00;;;10.00;99.90;;;;;;5037515;28;20067;-81
2023/03/31 06:33:34;;;;;;;0.00;0.00;;;10.00;99.90;;;;;;5055006;28;20056;-81
2023/03/31 06:36:02;;;;;;;0.05;0.05;;;10.00;99.90;;;;;;5054298;28;20385;-81
2023/03/31 06:38:28;;;;;;;0.00;0.00;;;10.00;99.90;;;;;;5053867;28;20363;-79
2023/03/31 06:40:54;;;;;;;0.15;0.10;;;10.00;99.90;;;;;;5020583;28;20116;-83
2023/03/31 06:43:20;;;;;;;0.00;0.00;;;10.00;99.90;;;;;;5053798;28;20049;-83
2023/03/31 06:45:47;;;;;;;4.95;0.65;;;10.00;99.90;;;;;;5037121;28;20049;-81
2023/03/31 06:48:13;;;;;;;0.00;0.00;;;10.00;99.90;;;;;;5054547;28;20425;-85
2023/03/31 06:50:40;;;;;;;0.00;0.00;;;10.00;99.90;;;;;;5052661;28;20415;-82
2023/03/31 06:53:07;;;;;;;0.00;0.00;;;10.10;99.90;;;;;;5054268;28;20053;-82
2023/03/31 06:55:34;;;;;;;0.00;0.00;;;10.10;99.90;;;;;;5053290;28;20049;-82
2023/03/31 06:58:00;;;;;;;0.00;0.00;;;10.10;99.90;;;;;;5053423;28;20117;-82
2023/03/31 07:00:26;;;;;;;0.20;0.20;;;10.20;99.90;;;;;;5052984;28;20060;-82
2023/03/31 07:02:53;;;;;;;0.00;0.00;;;10.20;99.90;;;;;;5036561;28;20049;-82
2023/03/31 07:05:25;;;;;;;0.00;0.00;;;10.20;99.90;;;;;;5053238;28;20122;-83
2023/03/31 07:07:58;;;;;;;0.10;0.10;;;10.30;99.90;;;;;;5036844;28;20088;-83
2023/03/31 07:10:27;;;;;;;0.15;0.15;;;10.30;99.90;;;;;;5054599;28;20135;-83
2023/03/31 07:12:53;;;;;;;0.00;0.00;;;10.30;99.90;;;;;;5054333;28;20068;-83
2023/03/31 07:15:19;;;;;;;0.10;0.10;;;10.30;99.90;;;;;;5036462;28;20049;-83
2023/03/31 07:17:44;;;;;;;1.30;1.00;;;10.30;99.90;;;;;;5035711;28;20087;-83
2023/03/31 07:20:14;;;;;;;0.00;0.00;;;10.30;99.90;;;;;;5036665;28;20434;-84
2023/03/31 07:22:45;;;;;;;0.30;0.20;;;10.30;99.90;;;;;;5052360;28;20057;-83
2023/03/31 07:25:13;;;;;;;0.00;0.00;;;10.40;99.90;;;;;;5054504;28;20067;-84
2023/03/31 07:27:39;;;;;;;0.00;0.00;;;10.40;99.90;;;;;;5053702;28;20163;-83
2023/03/31 07:30:12;;;;;;;0.00;0.00;;;10.40;99.90;;;;;;5055100;28;20140;-84
2023/03/31 07:32:39;;;;;;;0.38;0.22;;;10.40;99.90;;;;;;5054501;28;20048;-83
2023/03/31 07:35:10;;;;;;;0.10;0.10;;;10.40;99.90;;;;;;5060100;28;20056;-83
2023/03/31 07:37:40;;;;;;;0.00;0.00;;;10.50;99.90;;;;;;5058227;28;20088;-83
2023/03/31 07:40:09;;;;;;;0.00;0.00;;;10.50;99.90;;;;;;5055672;28;20084;-83
2023/03/31 07:42:35;;;;;;;0.00;0.00;;;10.50;99.90;;;;;;5036386;28;20049;-83
2023/03/31 07:45:02;;;;;;;0.00;0.00;;;10.50;99.90;;;;;;5036536;28;20514;-83
2023/03/31 07:47:30;;;;;;;0.00;0.00;;;10.50;99.90;;;;;;5052443;28;20045;-83
2023/03/31 07:49:56;;;;;;;0.65;0.00;;;10.60;99.90;;;;;;5036754;28;20053;-86
2023/03/31 07:52:22;;;;;;;0.00;0.00;;;10.60;99.90;;;;;;5035896;28;20477;-83
2023/03/31 07:54:48;;;;;;;0.00;0.00;;;10.60;99.90;;;;;;5036123;28;20041;-83
2023/03/31 07:57:16;;;;;;;1.35;0.43;;;10.60;99.90;;;;;;5020487;28;20509;-83
2023/03/31 07:59:42;;;;;;;0.00;0.00;;;10.60;99.90;;;;;;5052530;28;20052;-84
2023/03/31 08:02:12;;;;;;;3.20;1.88;;;10.60;99.90;;;;;;5035935;28;20112;-86
2023/03/31 08:04:40;;;;;;;0.10;0.10;;;10.60;99.90;;;;;;5036295;28;20044;-81
2023/03/31 08:07:07;;;;;;;0.03;0.03;;;10.60;99.90;;;;;;5052611;28;20041;-83
2023/03/31 08:09:33;;;;;;;0.00;0.00;;;10.60;99.90;;;;;;5052453;28;20044;-84
2023/03/31 08:11:59;;;;;;;0.05;0.05;;;10.60;99.90;;;;;;5036136;28;20104;-88
2023/03/31 08:14:24;;;;;;;3.42;0.52;;;10.60;99.90;;;;;;5035680;28;20103;-84
2023/03/31 08:16:52;;;;;;;0.25;0.15;;;10.70;99.90;;;;;;5052390;28;20481;-82
2023/03/31 08:19:17;;;;;;;0.00;0.00;;;10.70;99.90;;;;;;5035946;28;20053;-82
2023/03/31 08:21:43;;;;;;;0.77;0.38;;;10.70;99.90;;;;;;5051799;28;20055;-82
2023/03/31 08:24:09;;;;;;;2.75;0.82;;;10.80;99.90;;;;;;5052243;28;20374;-82
2023/03/31 08:26:35;;;;;;;0.00;0.00;;;10.80;99.90;;;;;;5035866;28;20092;-82
2023/03/31 08:29:02;;;;;;;0.00;0.00;;;10.80;99.90;;;;;;5035815;28;20525;-82
2023/03/31 08:31:30;;;;;;;0.00;0.00;;;10.80;99.90;;;;;;5052219;28;20080;-82
2023/03/31 08:33:56;;;;;;;0.00;0.00;;;10.80;99.90;;;;;;5053113;28;20110;-82
2023/03/31 08:36:22;;;;;;;0.00;0.00;;;10.90;99.90;;;;;;5053314;28;20481;-82
2023/03/31 08:38:48;;;;;;;0.00;0.00;;;10.90;99.90;;;;;;5037426;28;20057;-81
2023/03/31 08:41:32;;;;;;;0.00;0.00;;;10.90;99.90;;;;;;5039608;28;20124;-82
2023/03/31 08:44:01;;;;;;;0.00;0.00;;;11.00;99.90;;;;;;5056021;28;20048;-82
2023/03/31 08:46:32;;;;;;;0.00;0.00;;;11.00;99.90;;;;;;5055768;28;20085;-81
2023/03/31 08:48:59;;;;;;;0.10;0.10;;;11.00;99.90;;;;;;5056794;28;20044;-81
2023/03/31 08:51:40;;;;;;;0.00;0.00;;;11.00;99.90;;;;;;5056782;28;20120;-81
2023/03/31 08:54:22;;;;;;;0.00;0.00;;;11.00;99.90;;;;;;5056809;28;20048;-81
2023/03/31 08:56:49;;;;;;;0.00;0.00;;;11.00;99.90;;;;;;5057142;28;20094;-82
2023/03/31 08:59:36;;;;;;;0.70;0.30;;;11.00;99.90;;;;;;5056701;28;20045;-82
2023/03/31 09:02:28;;;;;;;0.00;0.00;;;11.00;99.90;;;;;;5056058;28;20051;-83
2023/03/31 09:05:15;;;;;;;0.40;0.30;;;11.00;99.90;;;;;;5056011;28;20080;-83
2023/03/31 09:08:18;;;;;;;0.00;0.00;;;11.00;99.90;;;;;;5055962;28;20045;-83
2023/03/31 09:10:59;;;;;;;0.00;0.00;;;11.00;99.90;;;;;;5055578;28;20397;-84
2023/03/31 09:14:06;;;;;;;0.30;0.30;;;11.10;99.90;;;;;;5039384;28;20048;-84
2023/03/31 09:16:32;;;;;;;0.28;0.28;;;11.00;99.90;;;;;;5035975;28;20091;-83
2023/03/31 09:19:01;;;;;;;0.00;0.00;;;11.10;99.90;;;;;;5055771;28;20044;-83
2023/03/31 09:21:32;;;;;;;0.20;0.00;;;11.00;99.90;;;;;;5055945;28;20055;-83
2023/03/31 09:24:11;;;;;;;0.00;0.00;;;11.00;99.90;;;;;;5056380;28;20110;-82
2023/03/31 09:26:45;;;;;;;0.00;0.00;;;11.00;99.90;;;;;;5056349;28;20048;-82
2023/03/31 09:29:28;;;;;;;0.00;0.00;;;11.00;99.90;;;;;;5055746;28;20095;-82
2023/03/31 09:32:00;;;;;;;0.00;0.00;;;11.00;99.90;;;;;;5055316;28;20053;-83
2023/03/31 09:34:30;;;;;;;0.00;0.00;;;11.00;99.90;;;;;;5038560;28;20048;-83
2023/03/31 09:36:56;;;;;;;0.00;0.00;;;11.10;99.90;;;;;;5055949;28;20500;-83
2023/03/31 09:39:21;;;;;;;0.00;0.00;;;11.10;99.90;;;;;;5038250;28;20088;-84
2023/03/31 09:41:50;;;;;;;0.00;0.00;;;11.20;99.90;;;;;;5055085;28;20080;-83
2023/03/31 09:44:30;;;;;;;0.00;0.00;;;11.20;99.90;;;;;;5038365;28;20052;-83
2023/03/31 09:46:59;;;;;;;0.00;0.00;;;11.30;99.90;;;;;;5056101;28;20088;-83
2023/03/31 09:49:31;;;;;;;0.03;0.03;;;11.30;99.90;;;;;;5055226;28;20049;-83
2023/03/31 09:52:28;;;;;;;0.03;0.00;;;11.40;99.90;;;;;;5054620;28;20081;-83
2023/03/31 09:54:56;;;;;;;0.00;0.00;;;11.40;99.90;;;;;;5039119;28;20381;-83
2023/03/31 09:57:34;;;;;;;0.00;0.00;;;11.40;99.90;;;;;;5054513;28;20076;-83
2023/03/31 10:00:15;;;;;;;0.00;0.00;;;11.50;99.90;;;;;;5054755;28;20044;-83
2023/03/31 10:02:49;;;;;;;0.00;0.00;;;11.50;99.90;;;;;;5055437;28;20056;-83
2023/03/31 10:05:26;;;;;;;0.28;0.20;;;11.50;99.90;;;;;;5055559;28;20136;-83
2023/03/31 10:08:13;;;;;;;0.00;0.00;;;11.50;99.90;;;;;;5055448;28;20052;-82
2023/03/31 10:10:44;;;;;;;0.00;0.00;;;11.50;99.90;;;;;;5054801;28;20114;-82
2023/03/31 10:13:15;;;;;;;0.00;0.00;;;11.40;99.90;;;;;;5053886;28;20531;-82
2023/03/31 10:15:41;;;;;;;0.00;0.00;;;11.50;99.90;;;;;;5055980;28;20469;-83
2023/03/31 10:18:13;;;;;;;0.00;0.00;;;11.50;99.90;;;;;;5054389;28;20056;-84
2023/03/31 10:20:52;;;;;;;0.00;0.00;;;11.60;99.90;;;;;;5054345;28;20469;-84
2023/03/31 10:23:27;;;;;;;0.00;0.00;;;11.60;99.90;;;;;;5055123;28;20065;-84
2023/03/31 10:25:53;;;;;;;0.05;0.05;;;11.80;99.90;;;;;;5055039;28;20166;-84
2023/03/31 10:28:20;;;;;;;0.00;0.00;;;11.90;99.90;;;;;;5038061;28;20405;-84
2023/03/31 10:30:55;;;;;;;0.00;0.00;;;11.90;99.90;;;;;;5054133;28;20501;-84
2023/03/31 10:33:27;;;;;;;0.00;0.00;;;11.90;99.90;;;;;;5038083;28;20444;-84
2023/03/31 10:35:58;;;;;;;0.00;0.00;;;12.00;99.90;;;;;;5053872;28;20123;-84
2023/03/31 10:38:45;;;;;;;0.00;0.00;;;11.90;99.90;;;;;;5037736;28;20064;-84
2023/03/31 10:41:16;;;;;;;0.00;0.00;;;11.90;99.90;;;;;;5054855;28;20132;-83
2023/03/31 10:43:48;;;;;;;0.00;0.00;;;12.00;99.90;;;;;;5054368;28;20048;-83
2023/03/31 10:46:13;;;;;;;0.00;0.00;;;12.00;99.90;;;;;;5054850;28;20465;-83
2023/03/31 10:48:41;;;;;;;0.00;0.00;;;11.90;99.90;;;;;;5020736;28;20060;-82
2023/03/31 10:51:24;;;;;;;0.00;0.00;;;11.90;99.90;;;;;;5036973;28;20068;-82
2023/03/31 10:53:52;;;;;;;0.00;0.00;;;11.90;99.90;;;;;;5055274;28;20097;-82
2023/03/31 10:56:34;;;;;;;0.00;0.00;;;11.90;99.90;;;;;;5053399;28;20045;-83
2023/03/31 10:59:58;;;;;;;0.00;0.00;;;11.90;99.90;;;;;;5037774;28;20366;-83
2023/03/31 11:02:54;;;;;;;0.00;0.00;;;12.00;99.90;;;;;;5015212;28;20049;-84
2023/03/31 11:05:26;;;;;;;0.00;0.00;;;12.00;99.90;;;;;;4999604;28;20048;-83
2023/03/31 11:08:01;;;;;;;0.00;0.00;;;12.00;99.90;;;;;;5043203;28;20126;-84
2023/03/31 11:10:36;;;;;;;0.00;0.00;;;12.10;99.90;;;;;;5053824;28;20095;-84
2023/03/31 11:13:20;;;;;;;0.00;0.00;;;12.20;99.90;;;;;;5053129;28;20057;-84
2023/03/31 11:15:52;;;;;;;0.20;0.00;;;12.30;99.90;;;;;;5037695;28;20088;-84
2023/03/31 11:18:39;;;;;;;0.00;0.00;;;12.40;99.90;;;;;;5037155;28;20049;-84
2023/03/31 11:21:22;;;;;;;0.10;0.10;;;12.40;99.90;;;;;;5053556;28;20068;-84
2023/03/31 11:24:00;;;;;;;0.57;0.32;;;12.30;99.90;;;;;;5055550;28;20132;-84
2023/03/31 11:26:37;;;;;;;0.00;0.00;;;12.30;99.90;;;;;;5037769;28;20080;-84
2023/03/31 11:29:31;;;;;;;0.45;0.30;;;12.30;99.90;;;;;;5055124;28;20047;-84
2023/03/31 11:32:22;;;;;;;0.00;0.00;;;12.30;99.90;;;;;;5053957;28;20101;-84
2023/03/31 11:35:06;;;;;;;0.00;0.00;;;12.30;99.90;;;;;;5055078;28;20431;-84
2023/03/31 11:37:48;;;;;;;0.00;0.00;;;12.30;99.90;;;;;;5054339;28;20429;-84
2023/03/31 11:40:23;;;;;;;9.75;1.15;;;12.30;99.90;;;;;;5037176;28;20091;-84
2023/03/31 11:42:58;;;;;;;;;;;12.30;99.90;;;;;;5037065;28;20049;-82
2023/03/31 11:45:48;;;;;;;0.00;0.00;;;12.30;99.90;;;;;;5036495;28;19920;-83
2023/03/31 11:48:43;;;;;;;0.00;0.00;;;12.40;99.90;;;;;;5053108;28;20131;-83
2023/03/31 11:51:16;;;;;;;0.75;0.47;;;12.40;99.90;;;;;;5037660;28;20045;-84
2023/03/31 11:53:45;;;;;;;1.65;0.00;;;12.30;99.90;;;;;;5054237;28;20047;-84
2023/03/31 11:56:13;;;;;;;0.00;0.00;;;12.30;99.90;;;;;;5036688;28;20053;-85
2023/03/31 11:59:06;;;;;;;0.00;0.00;;;12.30;99.90;;;;;;5053140;28;20123;-84
2023/03/31 12:01:56;;;;;;;0.00;0.00;;;12.30;99.90;;;;;;5017925;28;20067;-83
2023/03/31 12:04:33;;;;;;;0.00;0.00;;;12.30;99.90;;;;;;5052783;28;20049;-84
2023/03/31 12:07:23;;;;;;;0.10;0.10;;;12.50;99.90;;;;;;5036720;28;20500;-84
2023/03/31 12:10:18;;;;;;;0.28;0.28;;;12.60;99.90;;;;;;5052960;28;20049;-84
2023/03/31 12:13:13;;;;;;;0.00;0.00;;;12.80;99.90;;;;;;5054484;28;20088;-84
2023/03/31 12:15:43;;;;;;;0.00;0.00;;;13.00;99.90;;;;;;5057539;28;20369;-84
2023/03/31 12:18:15;;;;;;;0.00;0.00;;;13.20;99.90;;;;;;5058156;28;20080;-84
2023/03/31 12:20:45;;;;;;;0.00;0.00;;;13.50;99.90;;;;;;5056429;28;20101;-84
2023/03/31 12:23:18;;;;;;;0.00;0.00;;;13.70;99.90;;;;;;5040436;28;20091;-84
2023/03/31 12:26:21;;;;;;;0.10;0.08;;;13.70;99.90;;;;;;5040226;28;20052;-83
2023/03/31 12:28:52;;;;;;;0.10;0.10;;;13.80;99.90;;;;;;5040474;28;20094;-85
2023/03/31 12:31:21;;;;;;;0.00;0.00;;;13.90;99.90;;;;;;5056729;28;20056;-84
2023/03/31 12:34:00;;;;;;;0.00;0.00;;;14.10;99.90;;;;;;5040736;28;20092;-82
2023/03/31 12:36:41;;;;;;;0.00;0.00;;;14.30;99.90;;;;;;5040379;28;20457;-83
2023/03/31 12:39:27;;;;;;;0.00;0.00;;;14.30;99.90;;;;;;5057281;28;20045;-82
2023/03/31 12:42:32;;;;;;;0.00;0.00;;;14.20;99.90;;;;;;5056427;28;20135;-82
2023/03/31 12:45:16;;;;;;;0.10;0.10;;;14.10;99.90;;;;;;5039767;28;20106;-82
2023/03/31 12:48:04;;;;;;;0.00;0.00;;;13.90;99.90;;;;;;5039780;28;20064;-81
2023/03/31 12:50:43;;;;;;;10.32;1.10;;;13.80;99.90;;;;;;5040118;28;20051;-79
2023/03/31 12:53:15;;;;;;;0.00;0.00;;;13.70;99.90;;;;;;5055946;28;20481;-80
2023/03/31 12:55:50;;;;;;;1.17;0.43;;;13.70;99.90;;;;;;5058253;28;20052;-80
2023/03/31 12:58:28;;;;;;;0.00;0.00;;;13.70;99.90;;;;;;5039331;28;20044;-81
2023/03/31 13:01:00;;;;;;;0.30;0.30;;;13.70;99.90;;;;;;5056707;28;20133;-81
2023/03/31 13:04:04;;;;;;;8.63;1.08;;;13.70;99.90;;;;;;5056575;28;20045;-81
2023/03/31 13:06:30;;;;;;;0.00;0.00;;;13.70;99.90;;;;;;5056053;28;20450;-81
2023/03/31 13:09:04;;;;;;;0.00;0.00;;;13.50;99.90;;;;;;5055449;28;20072;-82
2023/03/31 13:11:35;;;;;;;0.00;0.00;;;13.40;99.90;;;;;;5056016;28;20469;-82
2023/03/31 13:14:24;;;;;;;0.00;0.00;;;13.40;99.90;;;;;;5055767;28;20049;-82
2023/03/31 13:16:52;;;;;;;0.30;0.15;;;13.30;99.90;;;;;;5055713;28;20381;-82